CheckWX is a tool to help pilots better visualize weather data.  It is not intended as a substitute for an official pre-flight weather briefing.

07:32:32 UTC

VTUQ TAF
Nakhon Ratchasima Airport
Thailand
TAF VTUQ 210500Z 2106/2206 06006KT 9999 FEW030 BECMG 2121/2123 5000 BR BECMG 2201/2203 9999 NSW

Oct-21@
06:00 UTC

Oct-21 @ 06:00 UTC

Oct-21@
21:00 UTC

Oct-21 @ 21:00 UTC

TAF VTUQ 210500Z 2106/2206 06006KT 9999 FEW030
Wind
  • 060° at 6 KTS
Cloud Levels
  • Few at 3,000' AGL

Oct-21@
21:00 UTC

Oct-21 @ 21:00 UTC

Oct-22@
01:00 UTC

Oct-22 @ 01:00 UTC

BECMG 2121/2123 5000 BR

Becoming

Becoming Conditions expected by Mon, Oct 21, 2019 @ 23:00 UTC

Wind
  • 060° at 6 KTS
Conditions
Mist
Cloud Levels
  • Few at 3,000' AGL

Oct-22@
01:00 UTC

Oct-22 @ 01:00 UTC

Oct-22@
06:00 UTC

Oct-22 @ 06:00 UTC

BECMG 2201/2203 9999 NSW

Becoming

Becoming Conditions expected by Tue, Oct 22, 2019 @ 03:00 UTC

Wind
  • 060° at 6 KTS
Conditions
No significant weather
Cloud Levels
  • Few at 3,000' AGL